createdAt,value
2018-03-30T00:02:04.617Z,6.40
2018-03-30T00:04:32.964Z,6.20
2018-03-30T00:07:07.502Z,8.07
2018-03-30T00:09:53.456Z,6.40
2018-03-30T00:12:21.875Z,5.57
2018-03-30T00:14:50.154Z,6.43
2018-03-30T00:17:18.528Z,5.87
2018-03-30T00:19:47.052Z,6.00
2018-03-30T00:22:15.366Z,6.90
2018-03-30T00:24:45.537Z,6.03
2018-03-30T00:27:13.986Z,6.30
2018-03-30T00:29:42.338Z,5.70
2018-03-30T00:32:10.655Z,5.60
2018-03-30T00:34:39.073Z,5.80
2018-03-30T00:37:07.397Z,5.63
2018-03-30T00:39:35.874Z,5.72
2018-03-30T00:42:04.233Z,6.63
2018-03-30T00:44:33.567Z,5.10
2018-03-30T00:47:01.905Z,5.97
2018-03-30T00:49:30.421Z,5.10
2018-03-30T00:51:59.194Z,5.40
2018-03-30T00:54:27.956Z,6.00
2018-03-30T00:56:56.311Z,5.70
2018-03-30T00:59:24.672Z,5.27
2018-03-30T01:01:53.030Z,4.23
2018-03-30T01:04:21.398Z,5.00
2018-03-30T01:06:49.740Z,5.03
2018-03-30T01:09:18.049Z,4.68
2018-03-30T01:11:47.211Z,4.30
2018-03-30T01:14:16.313Z,5.30
2018-03-30T01:16:44.708Z,5.00
2018-03-30T01:19:13.868Z,4.23
2018-03-30T01:21:42.139Z,5.33
2018-03-30T01:24:10.452Z,3.90
2018-03-30T01:26:38.719Z,4.78
2018-03-30T01:29:07.072Z,4.40
2018-03-30T01:31:35.390Z,5.03
2018-03-30T01:34:04.480Z,4.33
2018-03-30T01:36:33.666Z,4.83
2018-03-30T01:39:01.955Z,4.30
2018-03-30T01:41:31.066Z,4.90
2018-03-30T01:44:00.196Z,4.13
2018-03-30T01:46:28.577Z,4.17
2018-03-30T01:48:56.939Z,4.50
2018-03-30T01:51:25.353Z,4.40
2018-03-30T01:53:53.983Z,4.53
2018-03-30T01:56:22.886Z,3.85
2018-03-30T01:58:51.336Z,4.90
2018-03-30T02:01:20.709Z,5.03
2018-03-30T02:03:48.977Z,4.80
2018-03-30T02:06:17.430Z,5.23
2018-03-30T02:08:45.762Z,4.43
2018-03-30T02:11:14.021Z,4.47
2018-03-30T02:13:43.105Z,4.37
2018-03-30T02:16:11.461Z,4.62
2018-03-30T02:18:40.008Z,4.03
2018-03-30T02:21:09.158Z,4.33
2018-03-30T02:23:37.503Z,4.13
2018-03-30T02:26:06.493Z,4.10
2018-03-30T02:28:34.813Z,4.80
2018-03-30T02:31:03.442Z,5.37
2018-03-30T02:33:31.743Z,4.40
2018-03-30T02:36:00.210Z,4.60
2018-03-30T02:38:28.491Z,4.80
2018-03-30T02:40:56.947Z,4.20
2018-03-30T02:43:25.276Z,3.72
2018-03-30T02:45:53.656Z,4.15
2018-03-30T02:48:21.981Z,4.63
2018-03-30T02:50:50.512Z,4.53
2018-03-30T02:53:18.797Z,20.27
2018-03-30T02:55:47.197Z,23.50
2018-03-30T02:58:16.304Z,10.83
2018-03-30T03:00:45.473Z,5.13
2018-03-30T03:03:13.764Z,4.30
2018-03-30T03:05:42.125Z,4.30
2018-03-30T03:08:10.411Z,5.30
2018-03-30T03:10:38.713Z,4.83
2018-03-30T03:13:07.807Z,5.33
2018-03-30T03:15:37.073Z,4.60
2018-03-30T03:18:05.413Z,4.30
2018-03-30T03:20:33.683Z,4.93
2018-03-30T03:23:02.108Z,4.87
2018-03-30T03:25:31.418Z,5.93
2018-03-30T03:28:01.589Z,4.90
2018-03-30T03:30:29.894Z,4.73
2018-03-30T03:32:58.487Z,5.00
2018-03-30T03:35:26.780Z,4.93
2018-03-30T03:37:55.160Z,5.47
2018-03-30T03:40:24.220Z,6.07
2018-03-30T03:42:52.757Z,6.75
2018-03-30T03:45:21.233Z,6.07
2018-03-30T03:47:49.546Z,4.80
2018-03-30T03:50:18.089Z,5.70
2018-03-30T03:52:47.342Z,5.65
2018-03-30T03:55:15.702Z,5.53
2018-03-30T03:57:43.960Z,4.90
2018-03-30T04:00:12.273Z,5.50
2018-03-30T04:02:40.544Z,4.43
2018-03-30T04:05:08.826Z,4.50
2018-03-30T04:07:37.105Z,3.93
2018-03-30T04:10:05.377Z,4.20
2018-03-30T04:12:33.841Z,4.60
2018-03-30T04:15:02.218Z,3.60
2018-03-30T04:17:30.912Z,4.37
2018-03-30T04:19:59.206Z,3.90
2018-03-30T04:22:27.515Z,4.35
2018-03-30T04:24:56.612Z,4.07
2018-03-30T04:27:31.865Z,4.65
2018-03-30T04:30:00.199Z,4.17
2018-03-30T04:32:28.667Z,3.60
2018-03-30T04:34:57.237Z,3.67
2018-03-30T04:37:25.669Z,4.13
2018-03-30T04:39:54.684Z,3.60
2018-03-30T04:42:23.012Z,4.03
2018-03-30T04:44:51.272Z,3.73
2018-03-30T04:47:19.670Z,4.27
2018-03-30T04:49:47.952Z,4.13
2018-03-30T04:52:16.287Z,4.18
2018-03-30T04:54:45.091Z,4.28
2018-03-30T04:57:13.382Z,4.65
2018-03-30T04:59:41.690Z,4.60
2018-03-30T05:02:10.732Z,4.50
2018-03-30T05:04:39.042Z,4.80
2018-03-30T05:07:08.342Z,4.27
2018-03-30T05:09:36.637Z,4.65
2018-03-30T05:12:05.091Z,4.73
2018-03-30T05:14:33.497Z,4.53
2018-03-30T05:17:02.528Z,4.30
2018-03-30T05:19:30.855Z,4.00
2018-03-30T05:21:59.312Z,4.70
2018-03-30T05:24:27.893Z,4.78
2018-03-30T05:26:56.251Z,4.80
2018-03-30T05:29:24.524Z,4.70
2018-03-30T05:31:52.937Z,4.50
2018-03-30T05:34:21.375Z,5.63
2018-03-30T05:36:49.824Z,4.93
2018-03-30T05:39:19.027Z,4.07
2018-03-30T05:41:48.225Z,5.13
2018-03-30T05:44:17.355Z,4.37
2018-03-30T05:46:45.637Z,5.10
2018-03-30T05:49:13.972Z,5.10
2018-03-30T05:51:43.470Z,3.47
2018-03-30T05:54:12.685Z,5.05
2018-03-30T05:56:41.166Z,4.67
2018-03-30T05:59:09.512Z,4.70
2018-03-30T06:01:37.870Z,4.70
2018-03-30T06:04:06.217Z,4.40
2018-03-30T06:06:34.565Z,7.63
2018-03-30T06:09:03.765Z,5.45
2018-03-30T06:11:32.851Z,4.40
2018-03-30T06:14:01.952Z,5.00
2018-03-30T06:16:31.067Z,5.17
2018-03-30T06:18:59.488Z,5.33
2018-03-30T06:21:27.850Z,5.47
2018-03-30T06:23:56.288Z,5.75
2018-03-30T06:26:24.637Z,5.30
2018-03-30T06:28:54.062Z,5.80
2018-03-30T06:31:23.180Z,5.00
2018-03-30T06:33:51.655Z,5.10
2018-03-30T06:36:20.072Z,5.65
2018-03-30T06:38:49.243Z,5.55
2018-03-30T06:41:17.641Z,4.30
2018-03-30T06:43:45.985Z,5.00
2018-03-30T06:46:14.588Z,4.37
2018-03-30T06:48:42.962Z,5.20
2018-03-30T06:51:11.506Z,5.32
2018-03-30T06:53:40.695Z,5.03
2018-03-30T06:56:09.003Z,4.72
2018-03-30T06:58:37.386Z,5.60
2018-03-30T07:01:05.788Z,5.20
2018-03-30T07:03:34.536Z,6.18
2018-03-30T07:06:03.643Z,5.13
2018-03-30T07:08:31.892Z,5.83
2018-03-30T07:11:00.347Z,6.10
2018-03-30T07:13:28.697Z,6.20
2018-03-30T07:15:57.001Z,5.37
2018-03-30T07:18:25.318Z,5.30
2018-03-30T07:20:54.483Z,4.93
2018-03-30T07:23:22.896Z,4.53
2018-03-30T07:25:52.307Z,5.40
2018-03-30T07:28:21.597Z,6.97
2018-03-30T07:30:50.067Z,6.27
2018-03-30T07:33:19.223Z,5.62
2018-03-30T07:35:47.587Z,5.57
2018-03-30T07:38:16.987Z,6.00
2018-03-30T07:40:45.471Z,5.63
2018-03-30T07:43:14.008Z,5.60
2018-03-30T07:45:43.361Z,6.57
2018-03-30T07:48:11.690Z,5.77
2018-03-30T07:50:41.016Z,5.10
2018-03-30T07:53:09.355Z,5.30
2018-03-30T07:55:37.685Z,5.33
2018-03-30T07:58:06.264Z,4.90
2018-03-30T08:00:34.775Z,5.07
2018-03-30T08:03:03.292Z,4.57
2018-03-30T08:05:32.361Z,4.80
2018-03-30T08:08:00.776Z,4.60
2018-03-30T08:10:31.001Z,5.10
2018-03-30T08:13:00.082Z,4.67
2018-03-30T08:15:29.277Z,3.67
2018-03-30T08:17:58.483Z,4.10
2018-03-30T08:20:27.698Z,3.53
2018-03-30T08:22:56.047Z,3.50
2018-03-30T08:25:25.170Z,3.90
2018-03-30T08:27:53.512Z,3.27
2018-03-30T08:30:21.914Z,3.67
2018-03-30T08:32:51.017Z,3.20
2018-03-30T08:35:19.544Z,4.17
2018-03-30T08:37:48.023Z,3.47
2018-03-30T08:40:16.564Z,3.20
2018-03-30T08:42:44.913Z,3.43
2018-03-30T08:45:14.073Z,3.07
2018-03-30T08:47:42.393Z,3.00
2018-03-30T08:50:11.508Z,3.10
2018-03-30T08:52:39.878Z,3.13
2018-03-30T08:55:09.217Z,7.00
2018-03-30T08:57:38.136Z,4.10
2018-03-30T09:00:06.568Z,3.30
2018-03-30T09:02:35.002Z,3.90
2018-03-30T09:05:03.441Z,3.00
2018-03-30T09:07:32.070Z,2.93
2018-03-30T09:10:00.818Z,2.97
2018-03-30T09:12:29.244Z,3.13
2018-03-30T09:14:58.874Z,3.17
2018-03-30T09:17:27.236Z,3.17
2018-03-30T09:19:56.346Z,2.63
2018-03-30T09:22:25.063Z,2.50
2018-03-30T09:24:53.403Z,2.87
2018-03-30T09:27:22.793Z,2.60
2018-03-30T09:29:53.753Z,2.37
2018-03-30T09:32:22.314Z,2.53
2018-03-30T09:34:51.466Z,2.60
2018-03-30T09:37:19.800Z,1.98
2018-03-30T09:39:48.957Z,2.60
2018-03-30T09:42:17.245Z,2.33
2018-03-30T09:44:45.878Z,2.30
2018-03-30T09:47:15.603Z,2.70
2018-03-30T09:49:43.994Z,2.23
2018-03-30T09:52:12.319Z,3.67
2018-03-30T09:54:41.413Z,2.10
2018-03-30T09:57:10.640Z,2.40
2018-03-30T09:59:38.981Z,2.20
2018-03-30T10:02:08.178Z,2.30
2018-03-30T10:04:36.557Z,2.20
2018-03-30T10:07:05.645Z,2.00
2018-03-30T10:09:34.826Z,2.03
2018-03-30T10:12:03.252Z,2.10
2018-03-30T10:14:31.838Z,1.98
2018-03-30T10:17:00.332Z,2.00
2018-03-30T10:19:30.554Z,2.00
2018-03-30T10:22:00.225Z,2.13
2018-03-30T10:24:29.422Z,2.20
2018-03-30T10:26:57.788Z,2.13
2018-03-30T10:29:26.188Z,1.87
2018-03-30T10:31:54.828Z,2.20
2018-03-30T10:34:23.258Z,2.50
2018-03-30T10:36:52.388Z,2.30
2018-03-30T10:39:20.735Z,2.10
2018-03-30T10:41:49.225Z,4.00
2018-03-30T10:44:17.667Z,2.33
2018-03-30T10:46:46.383Z,2.30
2018-03-30T10:49:14.725Z,2.10
2018-03-30T10:51:43.237Z,2.07
2018-03-30T10:54:11.997Z,2.40
2018-03-30T10:56:40.403Z,2.17
2018-03-30T10:59:08.923Z,2.45
2018-03-30T11:01:37.274Z,1.97
2018-03-30T11:04:05.814Z,2.25
2018-03-30T11:06:35.754Z,2.00
2018-03-30T11:09:04.895Z,2.10
2018-03-30T11:11:33.576Z,2.03
2018-03-30T11:14:01.909Z,2.17
2018-03-30T11:16:31.164Z,2.00
2018-03-30T11:18:59.494Z,2.20
2018-03-30T11:21:28.580Z,2.12
2018-03-30T11:23:57.722Z,1.80
2018-03-30T11:26:26.926Z,1.93
2018-03-30T11:28:55.386Z,2.73
2018-03-30T11:31:23.797Z,1.90
2018-03-30T11:33:52.137Z,2.10
2018-03-30T11:36:20.476Z,2.50
2018-03-30T11:38:48.902Z,3.00
2018-03-30T11:41:17.240Z,2.00
2018-03-30T11:43:45.729Z,2.22
2018-03-30T11:46:14.836Z,2.30
2018-03-30T11:48:43.304Z,2.40
2018-03-30T11:51:12.389Z,2.33
2018-03-30T11:53:41.516Z,2.33
2018-03-30T11:56:09.963Z,2.10
2018-03-30T11:58:38.374Z,2.43
2018-03-30T12:01:06.753Z,2.40
2018-03-30T12:03:35.139Z,2.27
2018-03-30T12:06:03.646Z,11.43
2018-03-30T12:08:32.048Z,14.02
2018-03-30T12:11:00.417Z,2.50
2018-03-30T12:13:28.804Z,1.73
2018-03-30T12:15:57.232Z,2.60
2018-03-30T12:18:25.598Z,3.17
2018-03-30T12:23:29.333Z,2.90
2018-03-30T12:25:57.643Z,2.77
2018-03-30T12:28:25.957Z,2.03
2018-03-30T12:30:56.207Z,2.17
2018-03-30T12:33:24.541Z,2.33
2018-03-30T12:35:53.039Z,2.40
2018-03-30T12:38:22.210Z,4.10
2018-03-30T12:40:50.824Z,9.17
2018-03-30T12:43:19.973Z,3.50
2018-03-30T12:45:48.348Z,3.17
2018-03-30T12:48:16.718Z,2.87
2018-03-30T12:50:45.163Z,2.57
2018-03-30T12:53:14.264Z,3.10
2018-03-30T12:55:42.665Z,3.03
2018-03-30T12:58:11.125Z,3.20
2018-03-30T13:00:39.589Z,3.83
2018-03-30T13:03:08.909Z,3.08
2018-03-30T13:05:37.323Z,3.03
2018-03-30T13:08:05.625Z,2.77
2018-03-30T13:10:33.974Z,3.00
2018-03-30T13:13:02.447Z,5.37
2018-03-30T13:15:31.435Z,2.90
2018-03-30T13:18:00.021Z,3.50
2018-03-30T13:20:28.684Z,3.30
2018-03-30T13:22:57.400Z,3.03
2018-03-30T13:25:25.720Z,3.13
2018-03-30T13:27:54.059Z,3.08
2018-03-30T13:30:22.738Z,3.17
2018-03-30T13:32:51.358Z,3.23
2018-03-30T13:35:19.787Z,2.77
2018-03-30T13:37:48.186Z,2.50
2018-03-30T13:40:16.509Z,2.50
2018-03-30T13:42:45.619Z,2.40
2018-03-30T13:45:13.999Z,2.53
2018-03-30T13:47:43.109Z,2.60
2018-03-30T13:50:11.491Z,2.65
2018-03-30T13:52:49.608Z,2.70
2018-03-30T13:55:22.645Z,3.00
2018-03-30T13:58:05.596Z,2.67
2018-03-30T14:00:37.611Z,2.50
2018-03-30T14:03:19.510Z,2.17
2018-03-30T14:09:39.603Z,2.13
2018-03-30T14:12:24.030Z,2.53
2018-03-30T14:14:52.334Z,2.77
2018-03-30T14:17:29.125Z,2.60
2018-03-30T14:20:01.097Z,2.70
2018-03-30T14:22:42.983Z,2.33
2018-03-30T14:25:12.613Z,2.40
2018-03-30T14:27:45.329Z,2.40
2018-03-30T14:30:24.454Z,1.90
2018-03-30T14:33:18.402Z,2.13
2018-03-30T14:39:11.039Z,2.00
2018-03-30T14:41:39.548Z,2.60
2018-03-30T14:47:14.757Z,2.43
2018-03-30T14:49:50.249Z,2.50
2018-03-30T14:55:24.709Z,2.27
2018-03-30T14:58:00.437Z,2.10
2018-03-30T15:00:28.814Z,2.30
2018-03-30T15:03:01.147Z,2.00
2018-03-30T15:05:36.895Z,2.50
2018-03-30T15:08:26.489Z,2.22
2018-03-30T15:14:08.585Z,2.33
2018-03-30T15:16:49.383Z,2.40
2018-03-30T15:19:21.486Z,2.30
2018-03-30T15:25:25.929Z,2.30
2018-03-30T15:27:58.507Z,2.23
2018-03-30T15:30:38.080Z,1.90
2018-03-30T15:33:16.540Z,2.20
2018-03-30T15:35:51.407Z,2.10
2018-03-30T15:38:19.868Z,1.90
2018-03-30T15:40:49.197Z,2.13
2018-03-30T15:43:20.106Z,1.70
2018-03-30T15:45:55.327Z,1.70
2018-03-30T15:48:23.687Z,1.80
2018-03-30T15:50:52.282Z,2.55
2018-03-30T15:53:19.819Z,2.00
2018-03-30T15:55:48.128Z,2.40
2018-03-30T15:58:16.468Z,2.20
2018-03-30T16:00:44.959Z,2.07
2018-03-30T16:03:13.289Z,1.47
2018-03-30T16:05:41.673Z,1.63
2018-03-30T16:08:10.738Z,1.73
2018-03-30T16:10:42.957Z,1.60
2018-03-30T16:13:11.321Z,1.70
2018-03-30T16:15:42.436Z,1.50
2018-03-30T16:18:10.757Z,1.95
2018-03-30T16:20:38.425Z,1.60
2018-03-30T16:23:06.051Z,1.60
2018-03-30T16:25:35.513Z,1.83
2018-03-30T16:28:03.143Z,1.90
2018-03-30T16:30:30.892Z,1.80
2018-03-30T16:32:59.191Z,1.90
2018-03-30T16:35:26.664Z,1.80
2018-03-30T16:37:54.461Z,2.23
2018-03-30T16:40:22.821Z,1.85
2018-03-30T16:42:50.287Z,2.08
2018-03-30T16:45:17.850Z,2.07
2018-03-30T16:47:45.496Z,2.13
2018-03-30T16:50:12.949Z,1.80
2018-03-30T16:52:40.419Z,2.00
2018-03-30T16:55:08.019Z,3.67
2018-03-30T16:57:35.706Z,4.97
2018-03-30T17:00:03.225Z,1.87
2018-03-30T17:02:31.500Z,1.90
2018-03-30T17:04:59.780Z,2.10
2018-03-30T17:07:28.027Z,1.80
2018-03-30T17:09:55.552Z,1.60
2018-03-30T17:12:24.136Z,2.20
2018-03-30T17:14:51.621Z,1.83
2018-03-30T17:17:19.120Z,1.90
2018-03-30T17:19:46.665Z,1.50
2018-03-30T17:22:14.997Z,1.63
2018-03-30T17:24:42.548Z,1.62
2018-03-30T17:27:10.010Z,1.83
2018-03-30T17:29:37.521Z,1.60
2018-03-30T17:32:05.786Z,1.40
2018-03-30T17:34:34.165Z,1.63
2018-03-30T17:37:01.704Z,1.53
2018-03-30T17:39:29.260Z,1.60
2018-03-30T17:41:56.796Z,1.63
2018-03-30T17:44:24.384Z,1.50
2018-03-30T17:46:51.941Z,1.70
2018-03-30T17:49:19.495Z,1.43
2018-03-30T17:51:47.325Z,1.80
2018-03-30T17:54:14.861Z,6.47
2018-03-30T17:56:43.994Z,2.30
2018-03-30T17:59:11.567Z,1.77
2018-03-30T18:01:39.258Z,1.80
2018-03-30T18:04:06.745Z,1.60
2018-03-30T18:06:35.050Z,2.00
2018-03-30T18:09:02.729Z,1.87
2018-03-30T18:11:30.264Z,1.90
2018-03-30T18:13:57.852Z,1.87
2018-03-30T18:16:25.842Z,2.00
2018-03-30T18:18:53.387Z,1.50
2018-03-30T18:21:20.985Z,1.80
2018-03-30T18:23:49.749Z,1.70
2018-03-30T18:26:17.442Z,1.77
2018-03-30T18:28:44.993Z,1.98
2018-03-30T18:31:13.329Z,1.63
2018-03-30T18:33:40.848Z,1.77
2018-03-30T18:36:08.314Z,1.77
2018-03-30T18:38:35.860Z,1.73
2018-03-30T18:41:06.097Z,2.20
2018-03-30T18:43:33.755Z,1.80
2018-03-30T18:46:01.224Z,1.80
2018-03-30T18:48:28.807Z,1.80
2018-03-30T18:50:56.287Z,1.65
2018-03-30T18:53:24.612Z,1.97
2018-03-30T18:55:52.270Z,2.17
2018-03-30T18:58:19.847Z,2.20
2018-03-30T19:00:47.424Z,2.47
2018-03-30T19:03:14.903Z,2.13
2018-03-30T19:05:42.437Z,2.23
2018-03-30T19:08:10.119Z,2.67
2018-03-30T19:10:37.594Z,2.53
2018-03-30T19:13:05.948Z,2.13
2018-03-30T19:15:33.557Z,2.20
2018-03-30T19:18:01.367Z,2.13
2018-03-30T19:20:29.203Z,2.70
2018-03-30T19:22:57.035Z,1.80
2018-03-30T19:25:24.566Z,2.20
2018-03-30T19:27:52.133Z,1.90
2018-03-30T19:30:19.690Z,2.50
2018-03-30T19:32:47.203Z,6.17
2018-03-30T19:35:15.135Z,12.60
2018-03-30T19:37:43.410Z,5.55
2018-03-30T19:40:11.652Z,4.17
2018-03-30T19:42:39.146Z,3.30
2018-03-30T19:45:08.393Z,3.30
2018-03-30T19:47:36.320Z,3.40
2018-03-30T19:50:03.924Z,3.37
2018-03-30T19:52:31.892Z,2.87
2018-03-30T19:54:59.388Z,3.20
2018-03-30T19:57:27.684Z,2.67
2018-03-30T19:59:55.280Z,2.90
2018-03-30T20:02:23.005Z,3.33
2018-03-30T20:04:51.253Z,2.87
2018-03-30T20:07:20.278Z,2.40
2018-03-30T20:09:48.779Z,2.80
2018-03-30T20:12:17.056Z,2.80
2018-03-30T20:14:44.566Z,3.77
2018-03-30T20:17:12.363Z,5.50
2018-03-30T20:19:40.633Z,3.90
2018-03-30T20:22:08.152Z,3.30
2018-03-30T20:24:35.687Z,3.77
2018-03-30T20:27:03.239Z,4.05
2018-03-30T20:29:30.785Z,4.37
2018-03-30T20:31:58.345Z,3.87
2018-03-30T20:34:25.877Z,3.35
2018-03-30T20:36:54.403Z,3.30
2018-03-30T20:39:21.884Z,4.07
2018-03-30T20:41:49.450Z,3.80
2018-03-30T20:44:17.170Z,3.83
2018-03-30T20:46:44.719Z,4.00
2018-03-30T20:49:12.307Z,4.37
2018-03-30T20:51:39.939Z,3.50
2018-03-30T20:54:07.469Z,2.90
2018-03-30T20:56:35.718Z,3.37
2018-03-30T20:59:03.308Z,2.90
2018-03-30T21:01:31.907Z,3.00
2018-03-30T21:03:59.440Z,2.85
2018-03-30T21:06:27.129Z,2.93
2018-03-30T21:08:54.661Z,3.23
2018-03-30T21:11:22.966Z,3.40
2018-03-30T21:13:50.530Z,3.30
2018-03-30T21:16:18.202Z,2.95
2018-03-30T21:18:45.685Z,3.60
2018-03-30T21:21:13.183Z,3.37
2018-03-30T21:23:41.297Z,2.92
2018-03-30T21:26:08.859Z,3.20
2018-03-30T21:28:36.348Z,3.28
2018-03-30T21:31:04.003Z,3.37
2018-03-30T21:33:31.473Z,4.17
2018-03-30T21:35:59.092Z,6.53
2018-03-30T21:38:26.631Z,3.27
2018-03-30T21:40:54.216Z,2.90
2018-03-30T21:43:21.728Z,3.33
2018-03-30T21:45:51.103Z,3.20
2018-03-30T21:48:18.616Z,3.13
2018-03-30T21:50:47.190Z,3.20
2018-03-30T21:53:14.698Z,3.22
2018-03-30T21:55:42.168Z,3.40
2018-03-30T21:58:09.798Z,2.93
2018-03-30T22:00:37.284Z,3.05
2018-03-30T22:03:05.600Z,2.97
2018-03-30T22:05:33.086Z,3.10
2018-03-30T22:08:00.844Z,2.80
2018-03-30T22:10:28.303Z,2.70
2018-03-30T22:12:55.858Z,2.53
2018-03-30T22:15:23.379Z,1.90
2018-03-30T22:17:51.665Z,2.00
2018-03-30T22:20:19.946Z,1.73
2018-03-30T22:22:47.521Z,1.92
2018-03-30T22:25:15.043Z,1.60
2018-03-30T22:27:43.492Z,1.53
2018-03-30T22:30:11.137Z,1.60
2018-03-30T22:32:38.645Z,1.57
2018-03-30T22:35:06.883Z,1.80
2018-03-30T22:37:34.407Z,1.60
2018-03-30T22:40:01.922Z,1.67
2018-03-30T22:42:29.400Z,2.03
2018-03-30T22:44:57.822Z,1.62
2018-03-30T22:47:25.287Z,1.60
2018-03-30T22:49:52.811Z,1.50
2018-03-30T22:52:20.663Z,1.50
2018-03-30T22:54:48.924Z,1.57
2018-03-30T22:57:16.410Z,1.50
2018-03-30T22:59:43.892Z,1.70
2018-03-30T23:02:11.484Z,1.50
2018-03-30T23:04:39.006Z,1.52
2018-03-30T23:07:06.453Z,1.57
2018-03-30T23:09:33.934Z,1.30
2018-03-30T23:12:01.693Z,1.80
2018-03-30T23:14:29.348Z,1.67
2018-03-30T23:16:56.929Z,1.33
2018-03-30T23:19:24.442Z,1.40
2018-03-30T23:21:51.883Z,1.50
2018-03-30T23:24:20.091Z,1.50
2018-03-30T23:26:47.726Z,1.20
2018-03-30T23:29:15.995Z,1.90
2018-03-30T23:31:44.446Z,1.43
2018-03-30T23:34:11.916Z,1.33
2018-03-30T23:36:39.692Z,1.70
2018-03-30T23:39:08.072Z,1.70
2018-03-30T23:41:36.590Z,1.40
2018-03-30T23:44:04.039Z,1.60
2018-03-30T23:46:31.557Z,1.50
2018-03-30T23:48:59.105Z,1.77
2018-03-30T23:51:26.653Z,1.37
2018-03-30T23:53:54.139Z,1.63
2018-03-30T23:56:22.358Z,1.67
2018-03-30T23:58:49.807Z,1.40
